sensor_id;sensor_type;location;lat;lon;timestamp;pressure;altitude;pressure_sealevel;temperature;humidity
21520;BME280;10921;53.614;9.882;2022-08-19T00:00:57;101052.25;;;21.83;77.48
21520;BME280;10921;53.614;9.882;2022-08-19T00:03:24;101037.84;;;21.82;77.44
21520;BME280;10921;53.614;9.882;2022-08-19T00:05:51;101019.03;;;21.74;77.52
21520;BME280;10921;53.614;9.882;2022-08-19T00:08:17;101044.94;;;21.83;77.78
21520;BME280;10921;53.614;9.882;2022-08-19T00:10:44;101034.91;;;21.84;77.18
21520;BME280;10921;53.614;9.882;2022-08-19T00:13:12;101030.53;;;21.83;77.49
21520;BME280;10921;53.614;9.882;2022-08-19T00:15:38;101001.47;;;21.70;77.55
21520;BME280;10921;53.614;9.882;2022-08-19T00:18:05;101011.94;;;21.80;77.61
21520;BME280;10921;53.614;9.882;2022-08-19T00:20:31;100981.66;;;21.56;77.68
21520;BME280;10921;53.614;9.882;2022-08-19T00:22:58;101031.16;;;21.78;77.82
21520;BME280;10921;53.614;9.882;2022-08-19T00:25:24;101033.88;;;21.78;77.85
21520;BME280;10921;53.614;9.882;2022-08-19T00:27:56;101035.53;;;21.79;77.90
21520;BME280;10921;53.614;9.882;2022-08-19T00:30:23;101038.25;;;21.79;77.96
21520;BME280;10921;53.614;9.882;2022-08-19T00:32:49;101038.25;;;21.79;77.66
21520;BME280;10921;53.614;9.882;2022-08-19T00:35:17;101031.78;;;21.80;77.52
21520;BME280;10921;53.614;9.882;2022-08-19T00:37:44;101020.06;;;21.80;77.66
21520;BME280;10921;53.614;9.882;2022-08-19T00:40:12;101019.25;;;21.79;78.01
21520;BME280;10921;53.614;9.882;2022-08-19T00:42:39;100999.81;;;21.62;77.73
21520;BME280;10921;53.614;9.882;2022-08-19T00:45:14;101022.78;;;21.80;78.32
21520;BME280;10921;53.614;9.882;2022-08-19T00:47:41;101024.66;;;21.79;77.88
21520;BME280;10921;53.614;9.882;2022-08-19T00:50:08;101018.63;;;21.77;78.01
21520;BME280;10921;53.614;9.882;2022-08-19T00:52:38;101011.09;;;21.79;77.60
21520;BME280;10921;53.614;9.882;2022-08-19T00:55:22;101006.91;;;21.83;78.21
21520;BME280;10921;53.614;9.882;2022-08-19T00:57:58;101017.53;;;21.85;77.74
21520;BME280;10921;53.614;9.882;2022-08-19T01:00:27;101010.88;;;21.81;77.43
21520;BME280;10921;53.614;9.882;2022-08-19T01:02:54;101013.59;;;21.81;77.43
21520;BME280;10921;53.614;9.882;2022-08-19T01:05:24;101009.22;;;21.80;77.89
21520;BME280;10921;53.614;9.882;2022-08-19T01:07:54;101011.09;;;21.79;77.85
21520;BME280;10921;53.614;9.882;2022-08-19T01:10:26;100999.38;;;21.72;78.05
21520;BME280;10921;53.614;9.882;2022-08-19T01:12:54;101007.31;;;21.73;78.21
21520;BME280;10921;53.614;9.882;2022-08-19T01:15:25;100998.16;;;21.68;78.49
21520;BME280;10921;53.614;9.882;2022-08-19T01:17:53;101006.50;;;21.66;78.18
21520;BME280;10921;53.614;9.882;2022-08-19T01:20:22;100995.84;;;21.71;78.33
21520;BME280;10921;53.614;9.882;2022-08-19T01:22:53;100999.38;;;21.72;78.88
21520;BME280;10921;53.614;9.882;2022-08-19T01:25:24;101000.44;;;21.71;79.10
21520;BME280;10921;53.614;9.882;2022-08-19T01:27:54;100998.75;;;21.70;78.65
21520;BME280;10921;53.614;9.882;2022-08-19T01:30:30;100993.97;;;21.65;78.93
21520;BME280;10921;53.614;9.882;2022-08-19T01:32:58;101001.28;;;21.65;79.25
21520;BME280;10921;53.614;9.882;2022-08-19T01:35:29;100989.59;;;21.58;79.07
21520;BME280;10921;53.614;9.882;2022-08-19T01:37:59;100993.13;;;21.58;79.60
21520;BME280;10921;53.614;9.882;2022-08-19T01:40:29;100984.16;;;21.58;79.78
21520;BME280;10921;53.614;9.882;2022-08-19T01:42:57;100979.16;;;21.48;79.77
21520;BME280;10921;53.614;9.882;2022-08-19T01:45:26;100996.25;;;21.55;79.87
21520;BME280;10921;53.614;9.882;2022-08-19T01:47:54;100996.91;;;21.51;80.31
21520;BME280;10921;53.614;9.882;2022-08-19T01:50:29;100985.84;;;21.46;80.33
21520;BME280;10921;53.614;9.882;2022-08-19T01:52:57;100989.19;;;21.48;80.57
21520;BME280;10921;53.614;9.882;2022-08-19T01:55:31;100991.69;;;21.49;80.37
21520;BME280;10921;53.614;9.882;2022-08-19T01:58:02;100961.19;;;21.34;81.19
21520;BME280;10921;53.614;9.882;2022-08-19T02:00:32;100961.19;;;21.34;81.00
21520;BME280;10921;53.614;9.882;2022-08-19T02:03:04;100981.66;;;21.43;81.98
21520;BME280;10921;53.614;9.882;2022-08-19T02:05:32;100970.59;;;21.38;81.10
21520;BME280;10921;53.614;9.882;2022-08-19T02:07:59;100948.47;;;21.28;81.51
21520;BME280;10921;53.614;9.882;2022-08-19T02:10:27;100957.25;;;21.23;82.11
21520;BME280;10921;53.614;9.882;2022-08-19T02:12:54;100968.72;;;21.32;82.93
21520;BME280;10921;53.614;9.882;2022-08-19T02:15:21;100976.84;;;21.32;82.29
21520;BME280;10921;53.614;9.882;2022-08-19T02:17:48;100968.72;;;21.32;82.45
21520;BME280;10921;53.614;9.882;2022-08-19T02:20:15;100972.25;;;21.32;82.78
21520;BME280;10921;53.614;9.882;2022-08-19T02:22:43;100956.81;;;21.26;82.94
21520;BME280;10921;53.614;9.882;2022-08-19T02:25:12;100955.16;;;21.32;82.90
21520;BME280;10921;53.614;9.882;2022-08-19T02:27:41;100953.28;;;21.32;83.13
21520;BME280;10921;53.614;9.882;2022-08-19T02:30:13;100952.44;;;21.32;83.39
21520;BME280;10921;53.614;9.882;2022-08-19T02:32:42;100950.75;;;21.31;83.18
21520;BME280;10921;53.614;9.882;2022-08-19T02:35:12;100935.53;;;21.23;83.31
21520;BME280;10921;53.614;9.882;2022-08-19T02:37:39;100947.00;;;21.32;82.73
21520;BME280;10921;53.614;9.882;2022-08-19T02:40:26;100923.59;;;21.18;83.02
21520;BME280;10921;53.614;9.882;2022-08-19T02:42:53;100941.56;;;21.25;82.96
21520;BME280;10921;53.614;9.882;2022-08-19T02:45:20;100940.53;;;21.20;83.16
21520;BME280;10921;53.614;9.882;2022-08-19T02:47:46;100946.41;;;21.23;83.60
21520;BME280;10921;53.614;9.882;2022-08-19T02:50:13;100949.91;;;21.17;83.49
21520;BME280;10921;53.614;9.882;2022-08-19T02:52:40;100964.13;;;21.19;83.74
21520;BME280;10921;53.614;9.882;2022-08-19T02:55:07;100963.25;;;21.19;84.03
21520;BME280;10921;53.614;9.882;2022-08-19T02:57:34;100949.91;;;21.17;83.24
21520;BME280;10921;53.614;9.882;2022-08-19T03:00:05;100953.44;;;21.18;84.17
21520;BME280;10921;53.614;9.882;2022-08-19T03:02:31;100953.28;;;21.32;82.34
21520;BME280;10921;53.614;9.882;2022-08-19T03:04:58;100939.44;;;21.01;83.25
21520;BME280;10921;53.614;9.882;2022-08-19T03:07:24;100960.53;;;21.05;83.46
21520;BME280;10921;53.614;9.882;2022-08-19T03:09:51;100968.66;;;21.12;84.06
21520;BME280;10921;53.614;9.882;2022-08-19T03:12:17;100963.44;;;21.11;84.37
21520;BME280;10921;53.614;9.882;2022-08-19T03:14:44;100969.72;;;21.11;83.93
21520;BME280;10921;53.614;9.882;2022-08-19T03:17:12;100972.03;;;21.08;83.79
21520;BME280;10921;53.614;9.882;2022-08-19T03:19:39;100982.03;;;21.07;84.36
21520;BME280;10921;53.614;9.882;2022-08-19T03:22:06;100962.00;;;21.01;84.12
21520;BME280;10921;53.614;9.882;2022-08-19T03:24:33;100969.94;;;21.03;84.48
21520;BME280;10921;53.614;9.882;2022-08-19T03:27:00;100969.94;;;21.03;84.53
21520;BME280;10921;53.614;9.882;2022-08-19T03:29:28;100966.34;;;20.96;85.02
21520;BME280;10921;53.614;9.882;2022-08-19T03:31:59;100965.31;;;20.97;85.07
21520;BME280;10921;53.614;9.882;2022-08-19T03:34:29;100969.25;;;20.94;85.51
21520;BME280;10921;53.614;9.882;2022-08-19T03:36:58;100970.94;;;20.89;85.54
21520;BME280;10921;53.614;9.882;2022-08-19T03:39:26;100976.13;;;20.84;85.95
21520;BME280;10921;53.614;9.882;2022-08-19T03:41:54;100973.84;;;20.81;86.53
21520;BME280;10921;53.614;9.882;2022-08-19T03:44:43;100973.63;;;20.76;86.52
21520;BME280;10921;53.614;9.882;2022-08-19T03:47:11;100989.47;;;20.79;87.08
21520;BME280;10921;53.614;9.882;2022-08-19T03:49:42;100985.53;;;20.75;87.58
21520;BME280;10921;53.614;9.882;2022-08-19T03:52:09;100986.34;;;20.75;87.44
21520;BME280;10921;53.614;9.882;2022-08-19T03:54:35;100987.19;;;20.76;87.57
21520;BME280;10921;53.614;9.882;2022-08-19T03:57:02;100998.69;;;20.78;87.11
21520;BME280;10921;53.614;9.882;2022-08-19T03:59:32;100988.63;;;20.78;87.94
21520;BME280;10921;53.614;9.882;2022-08-19T04:02:00;100988.50;;;20.93;86.39
21520;BME280;10921;53.614;9.882;2022-08-19T04:04:27;100991.13;;;20.80;87.04
21520;BME280;10921;53.614;9.882;2022-08-19T04:06:57;100972.75;;;20.68;86.61
21520;BME280;10921;53.614;9.882;2022-08-19T04:09:24;100998.69;;;20.78;87.76
21520;BME280;10921;53.614;9.882;2022-08-19T04:11:54;100983.59;;;20.68;88.33
21520;BME280;10921;53.614;9.882;2022-08-19T04:14:28;100978.41;;;20.74;88.93
21520;BME280;10921;53.614;9.882;2022-08-19T04:16:57;100980.47;;;20.65;88.08
21520;BME280;10921;53.614;9.882;2022-08-19T04:19:25;101003.03;;;20.72;88.96
21520;BME280;10921;53.614;9.882;2022-08-19T04:21:54;101003.03;;;20.72;88.91
21520;BME280;10921;53.614;9.882;2022-08-19T04:24:22;101010.09;;;20.66;89.36
21520;BME280;10921;53.614;9.882;2022-08-19T04:26:49;101013.44;;;20.68;89.96
21520;BME280;10921;53.614;9.882;2022-08-19T04:29:22;101003.81;;;20.59;90.47
21520;BME280;10921;53.614;9.882;2022-08-19T04:31:52;101023.25;;;20.69;90.01
21520;BME280;10921;53.614;9.882;2022-08-19T04:34:21;101020.53;;;20.69;90.27
21520;BME280;10921;53.614;9.882;2022-08-19T04:36:49;101010.72;;;20.62;90.35
21520;BME280;10921;53.614;9.882;2022-08-19T04:39:20;101027.84;;;20.69;90.20
21520;BME280;10921;53.614;9.882;2022-08-19T04:41:47;101033.72;;;20.86;89.50
21520;BME280;10921;53.614;9.882;2022-08-19T04:44:33;101031.19;;;20.71;88.37
21520;BME280;10921;53.614;9.882;2022-08-19T04:47:01;101041.38;;;20.69;88.59
21520;BME280;10921;53.614;9.882;2022-08-19T04:49:36;101047.00;;;20.67;88.63
21520;BME280;10921;53.614;9.882;2022-08-19T04:52:03;101031.34;;;20.63;88.43
21520;BME280;10921;53.614;9.882;2022-08-19T04:54:29;101035.13;;;20.62;88.03
21520;BME280;10921;53.614;9.882;2022-08-19T04:57:06;101051.59;;;20.60;88.08
21520;BME280;10921;53.614;9.882;2022-08-19T04:59:35;101042.81;;;20.58;88.20
21520;BME280;10921;53.614;9.882;2022-08-19T05:02:03;101043.22;;;20.55;88.13
21520;BME280;10921;53.614;9.882;2022-08-19T05:04:30;101039.03;;;20.53;88.36
21520;BME280;10921;53.614;9.882;2022-08-19T05:06:59;101037.56;;;20.50;88.45
21520;BME280;10921;53.614;9.882;2022-08-19T05:09:28;101040.25;;;20.44;88.78
21520;BME280;10921;53.614;9.882;2022-08-19T05:12:14;101043.78;;;20.44;88.39
21520;BME280;10921;53.614;9.882;2022-08-19T05:14:41;101045.63;;;20.37;88.74
21520;BME280;10921;53.614;9.882;2022-08-19T05:17:08;101046.91;;;20.41;89.08
21520;BME280;10921;53.614;9.882;2022-08-19T05:19:53;101057.09;;;20.39;89.03
21520;BME280;10921;53.614;9.882;2022-08-19T05:22:39;101045.16;;;20.33;89.48
21520;BME280;10921;53.614;9.882;2022-08-19T05:25:09;101048.50;;;20.35;89.77
21520;BME280;10921;53.614;9.882;2022-08-19T05:27:39;101052.06;;;20.36;89.63
21520;BME280;10921;53.614;9.882;2022-08-19T05:30:06;101053.09;;;20.35;89.92
21520;BME280;10921;53.614;9.882;2022-08-19T05:32:33;101052.25;;;20.34;90.20
21520;BME280;10921;53.614;9.882;2022-08-19T05:34:59;101052.44;;;20.33;90.34
21520;BME280;10921;53.614;9.882;2022-08-19T05:37:26;101053.69;;;20.30;90.18
21520;BME280;10921;53.614;9.882;2022-08-19T05:39:54;101056.19;;;20.32;90.65
21520;BME280;10921;53.614;9.882;2022-08-19T05:42:21;101049.66;;;20.20;90.45
21520;BME280;10921;53.614;9.882;2022-08-19T05:44:49;101063.69;;;20.30;90.47
21520;BME280;10921;53.614;9.882;2022-08-19T05:47:16;101017.72;;;20.09;90.28
21520;BME280;10921;53.614;9.882;2022-08-19T05:49:45;101058.47;;;20.28;90.73
21520;BME280;10921;53.614;9.882;2022-08-19T05:52:13;101057.66;;;20.28;91.02
21520;BME280;10921;53.614;9.882;2022-08-19T05:54:45;101051.78;;;20.24;91.07
21520;BME280;10921;53.614;9.882;2022-08-19T05:57:18;101036.72;;;20.15;91.34
21520;BME280;10921;53.614;9.882;2022-08-19T05:59:45;101052.22;;;20.28;91.86
21520;BME280;10921;53.614;9.882;2022-08-19T06:02:17;101045.53;;;20.24;91.52
21520;BME280;10921;53.614;9.882;2022-08-19T06:04:44;101019.59;;;20.08;91.78
21520;BME280;10921;53.614;9.882;2022-08-19T06:07:11;101054.13;;;20.34;91.37
21520;BME280;10921;53.614;9.882;2022-08-19T06:09:39;101041.00;;;20.31;91.85
21520;BME280;10921;53.614;9.882;2022-08-19T06:12:06;101023.84;;;20.24;91.93
21520;BME280;10921;53.614;9.882;2022-08-19T06:14:35;101042.25;;;20.35;91.92
21520;BME280;10921;53.614;9.882;2022-08-19T06:17:07;101057.31;;;20.38;91.76
21520;BME280;10921;53.614;9.882;2022-08-19T06:19:34;101050.66;;;20.40;92.07
21520;BME280;10921;53.614;9.882;2022-08-19T06:22:06;101051.28;;;20.42;91.71
21520;BME280;10921;53.614;9.882;2022-08-19T06:24:33;101047.34;;;20.45;91.92
21520;BME280;10921;53.614;9.882;2022-08-19T06:27:01;101062.56;;;20.46;91.75
21520;BME280;10921;53.614;9.882;2022-08-19T06:29:28;101059.63;;;20.47;91.89
21520;BME280;10921;53.614;9.882;2022-08-19T06:31:58;101049.44;;;20.49;91.68
21520;BME280;10921;53.614;9.882;2022-08-19T06:34:26;101053.81;;;20.50;91.50
21520;BME280;10921;53.614;9.882;2022-08-19T06:36:55;101057.81;;;20.54;91.37
21520;BME280;10921;53.614;9.882;2022-08-19T06:39:25;101060.13;;;20.57;91.58
21520;BME280;10921;53.614;9.882;2022-08-19T06:41:55;101049.72;;;20.61;91.77
21520;BME280;10921;53.614;9.882;2022-08-19T06:44:26;101017.72;;;20.43;91.37
21520;BME280;10921;53.614;9.882;2022-08-19T06:46:54;101056.56;;;20.63;91.43
21520;BME280;10921;53.614;9.882;2022-08-19T06:49:22;101056.63;;;20.70;91.45
21520;BME280;10921;53.614;9.882;2022-08-19T06:51:50;101055.38;;;20.73;91.33
21520;BME280;10921;53.614;9.882;2022-08-19T06:54:17;101055.63;;;20.78;91.25
21520;BME280;10921;53.614;9.882;2022-08-19T06:56:45;101058.75;;;20.81;90.93
21520;BME280;10921;53.614;9.882;2022-08-19T06:59:16;101053.75;;;20.85;90.75
21520;BME280;10921;53.614;9.882;2022-08-19T07:01:49;101049.41;;;20.90;91.22
21520;BME280;10921;53.614;9.882;2022-08-19T07:04:19;101060.66;;;20.94;89.74
21520;BME280;10921;53.614;9.882;2022-08-19T07:06:47;101060.66;;;20.94;89.19
21520;BME280;10921;53.614;9.882;2022-08-19T07:09:21;101066.13;;;21.00;89.13
21520;BME280;10921;53.614;9.882;2022-08-19T07:11:50;101058.63;;;21.02;88.85
21520;BME280;10921;53.614;9.882;2022-08-19T07:14:21;101061.75;;;21.06;88.36
21520;BME280;10921;53.614;9.882;2022-08-19T07:16:49;101054.84;;;21.10;88.42
21520;BME280;10921;53.614;9.882;2022-08-19T07:19:16;101061.56;;;21.14;87.76
21520;BME280;10921;53.614;9.882;2022-08-19T07:21:46;101054.88;;;21.17;87.64
21520;BME280;10921;53.614;9.882;2022-08-19T07:24:13;101060.78;;;21.20;87.17
21520;BME280;10921;53.614;9.882;2022-08-19T07:26:42;101059.72;;;21.28;86.85
21520;BME280;10921;53.614;9.882;2022-08-19T07:29:11;101066.63;;;21.30;86.52
21520;BME280;10921;53.614;9.882;2022-08-19T07:31:39;101070.63;;;21.34;85.77
21520;BME280;10921;53.614;9.882;2022-08-19T07:34:10;101067.50;;;21.37;85.39
21520;BME280;10921;53.614;9.882;2022-08-19T07:36:40;101078.53;;;21.42;84.90
21520;BME280;10921;53.614;9.882;2022-08-19T07:39:17;101081.47;;;21.48;84.70
21520;BME280;10921;53.614;9.882;2022-08-19T07:41:45;101047.19;;;21.27;83.77
21520;BME280;10921;53.614;9.882;2022-08-19T07:44:12;101076.25;;;21.46;83.43
21520;BME280;10921;53.614;9.882;2022-08-19T07:46:43;101082.75;;;21.52;83.14
21520;BME280;10921;53.614;9.882;2022-08-19T07:49:15;101086.09;;;21.54;82.24
21520;BME280;10921;53.614;9.882;2022-08-19T07:51:58;101096.75;;;21.62;83.52
21520;BME280;10921;53.614;9.882;2022-08-19T07:54:30;101098.81;;;21.60;82.24
21520;BME280;10921;53.614;9.882;2022-08-19T07:56:57;101103.00;;;21.62;81.82
21520;BME280;10921;53.614;9.882;2022-08-19T07:59:24;101078.78;;;21.48;81.81
21520;BME280;10921;53.614;9.882;2022-08-19T08:01:51;101104.28;;;21.66;81.40
21520;BME280;10921;53.614;9.882;2022-08-19T08:04:19;101103.22;;;21.67;81.86
21520;BME280;10921;53.614;9.882;2022-08-19T08:07:05;101112.81;;;21.70;81.22
21520;BME280;10921;53.614;9.882;2022-08-19T08:09:57;101109.06;;;21.71;80.78
21520;BME280;10921;53.614;9.882;2022-08-19T08:12:36;101117.22;;;21.77;82.21
21520;BME280;10921;53.614;9.882;2022-08-19T08:15:11;101122.66;;;21.77;80.89
21520;BME280;10921;53.614;9.882;2022-08-19T08:17:38;101111.56;;;21.72;80.80
21520;BME280;10921;53.614;9.882;2022-08-19T08:20:17;101128.31;;;21.83;80.58
21520;BME280;10921;53.614;9.882;2022-08-19T08:22:45;101132.47;;;21.85;80.46
21520;BME280;10921;53.614;9.882;2022-08-19T08:25:31;101135.81;;;21.87;80.41
21520;BME280;10921;53.614;9.882;2022-08-19T08:28:01;101145.44;;;21.90;80.25
21520;BME280;10921;53.614;9.882;2022-08-19T08:30:29;101136.03;;;21.86;79.96
21520;BME280;10921;53.614;9.882;2022-08-19T08:32:58;101134.78;;;21.95;80.02
21520;BME280;10921;53.614;9.882;2022-08-19T08:35:24;101143.97;;;21.94;80.07
21520;BME280;10921;53.614;9.882;2022-08-19T08:37:53;101141.06;;;21.95;80.26
21520;BME280;10921;53.614;9.882;2022-08-19T08:40:46;101119.94;;;21.91;80.23
21520;BME280;10921;53.614;9.882;2022-08-19T08:43:37;101143.38;;;22.05;80.49
21520;BME280;10921;53.614;9.882;2022-08-19T08:46:13;101130.81;;;21.97;79.97
21520;BME280;10921;53.614;9.882;2022-08-19T08:49:06;101138.78;;;22.05;80.74
21520;BME280;10921;53.614;9.882;2022-08-19T08:51:45;101137.97;;;22.12;79.87
21520;BME280;10921;53.614;9.882;2022-08-19T08:54:30;101140.47;;;22.13;79.31
21520;BME280;10921;53.614;9.882;2022-08-19T08:57:00;101142.97;;;22.15;78.52
21520;BME280;10921;53.614;9.882;2022-08-19T08:59:31;101145.88;;;22.20;79.26
21520;BME280;10921;53.614;9.882;2022-08-19T09:02:01;101144.41;;;22.24;78.78
21520;BME280;10921;53.614;9.882;2022-08-19T09:04:27;101124.97;;;22.20;78.20
21520;BME280;10921;53.614;9.882;2022-08-19T09:09:38;101138.97;;;22.43;78.10
21520;BME280;10921;53.614;9.882;2022-08-19T09:12:21;101138.09;;;22.50;78.04
21520;BME280;10921;53.614;9.882;2022-08-19T09:15:05;101087.75;;;22.27;77.44
21520;BME280;10921;53.614;9.882;2022-08-19T09:17:33;101144.53;;;22.62;76.23
21520;BME280;10921;53.614;9.882;2022-08-19T09:20:08;101148.53;;;22.66;75.94
21520;BME280;10921;53.614;9.882;2022-08-19T09:22:42;101148.31;;;22.67;76.11
21520;BME280;10921;53.614;9.882;2022-08-19T09:25:15;101141.81;;;22.68;75.73
21520;BME280;10921;53.614;9.882;2022-08-19T09:27:53;101142.44;;;22.70;75.73
21520;BME280;10921;53.614;9.882;2022-08-19T09:30:30;101149.34;;;22.73;75.88
21520;BME280;10921;53.614;9.882;2022-08-19T09:32:57;101152.91;;;22.73;75.37
21520;BME280;10921;53.614;9.882;2022-08-19T09:35:26;101149.56;;;22.71;75.56
21520;BME280;10921;53.614;9.882;2022-08-19T09:37:54;101142.88;;;22.67;75.79
21520;BME280;10921;53.614;9.882;2022-08-19T09:40:25;101130.09;;;22.61;76.16
21520;BME280;10921;53.614;9.882;2022-08-19T09:42:55;101148.72;;;22.71;76.13
21520;BME280;10921;53.614;9.882;2022-08-19T09:45:23;101123.88;;;22.61;76.69
21520;BME280;10921;53.614;9.882;2022-08-19T09:47:51;101142.66;;;22.75;76.67
21520;BME280;10921;53.614;9.882;2022-08-19T09:50:21;101138.47;;;22.79;76.47
21520;BME280;10921;53.614;9.882;2022-08-19T09:52:48;101142.22;;;22.78;76.54
21520;BME280;10921;53.614;9.882;2022-08-19T09:55:23;101140.75;;;22.83;76.18
21520;BME280;10921;53.614;9.882;2022-08-19T09:57:59;101141.59;;;22.83;75.82
21520;BME280;10921;53.614;9.882;2022-08-19T10:00:25;101123.59;;;22.75;75.82
21520;BME280;10921;53.614;9.882;2022-08-19T10:02:53;101141.19;;;22.79;76.38
21520;BME280;10921;53.614;9.882;2022-08-19T10:05:19;101140.78;;;22.76;76.61
21520;BME280;10921;53.614;9.882;2022-08-19T10:08:08;101143.28;;;22.77;76.83
21520;BME280;10921;53.614;9.882;2022-08-19T10:10:42;101141.19;;;22.79;77.59
21520;BME280;10921;53.614;9.882;2022-08-19T10:13:14;101149.75;;;22.83;77.75
21520;BME280;10921;53.614;9.882;2022-08-19T10:15:42;101144.94;;;22.85;77.47
21520;BME280;10921;53.614;9.882;2022-08-19T10:18:14;101143.88;;;22.86;77.96
21520;BME280;10921;53.614;9.882;2022-08-19T10:20:43;101147.88;;;22.84;77.57
21520;BME280;10921;53.614;9.882;2022-08-19T10:23:19;101149.53;;;22.91;76.95
21520;BME280;10921;53.614;9.882;2022-08-19T10:25:47;101158.28;;;22.93;76.82
21520;BME280;10921;53.614;9.882;2022-08-19T10:28:14;101155.19;;;22.90;77.00
21520;BME280;10921;53.614;9.882;2022-08-19T10:30:40;101146.81;;;22.85;76.92
21520;BME280;10921;53.614;9.882;2022-08-19T10:33:08;101154.38;;;22.83;77.53
21520;BME280;10921;53.614;9.882;2022-08-19T10:35:36;101147.47;;;22.80;77.89
21520;BME280;10921;53.614;9.882;2022-08-19T10:38:08;101131.16;;;22.67;78.18
21520;BME280;10921;53.614;9.882;2022-08-19T10:40:35;101135.53;;;22.74;78.74
21520;BME280;10921;53.614;9.882;2022-08-19T10:43:01;101139.28;;;22.80;78.46
21520;BME280;10921;53.614;9.882;2022-08-19T10:45:28;101145.16;;;22.84;78.17
21520;BME280;10921;53.614;9.882;2022-08-19T10:47:55;101149.13;;;22.88;78.02
21520;BME280;10921;53.614;9.882;2022-08-19T10:50:22;101134.47;;;22.89;78.26
21520;BME280;10921;53.614;9.882;2022-08-19T10:53:08;101139.22;;;23.00;77.81
21520;BME280;10921;53.614;9.882;2022-08-19T10:55:35;101135.88;;;23.04;76.83
21520;BME280;10921;53.614;9.882;2022-08-19T10:58:22;101123.09;;;23.05;76.56
21520;BME280;10921;53.614;9.882;2022-08-19T11:00:54;101132.59;;;23.27;76.76
21520;BME280;10921;53.614;9.882;2022-08-19T11:03:22;101139.47;;;23.36;75.71
21520;BME280;10921;53.614;9.882;2022-08-19T11:06:04;101135.38;;;23.59;75.86
21520;BME280;10921;53.614;9.882;2022-08-19T11:08:32;101140.31;;;23.68;74.14
21520;BME280;10921;53.614;9.882;2022-08-19T11:11:01;101133.69;;;23.89;73.70
21520;BME280;10921;53.614;9.882;2022-08-19T11:13:31;101116.38;;;24.02;73.13
21520;BME280;10921;53.614;9.882;2022-08-19T11:16:14;101128.84;;;24.41;72.96
21520;BME280;10921;53.614;9.882;2022-08-19T11:18:44;101130.28;;;24.62;70.78
21520;BME280;10921;53.614;9.882;2022-08-19T11:21:18;101129.59;;;24.84;71.04
21520;BME280;10921;53.614;9.882;2022-08-19T11:23:47;101128.25;;;24.94;68.13
21520;BME280;10921;53.614;9.882;2022-08-19T11:26:15;101136.16;;;25.02;67.14
21520;BME280;10921;53.614;9.882;2022-08-19T11:28:42;101143.63;;;25.06;67.15
21520;BME280;10921;53.614;9.882;2022-08-19T11:31:13;101139.38;;;25.10;67.18
21520;BME280;10921;53.614;9.882;2022-08-19T11:33:41;101133.91;;;25.10;67.28
21520;BME280;10921;53.614;9.882;2022-08-19T11:36:13;101132.03;;;25.11;66.68
21520;BME280;10921;53.614;9.882;2022-08-19T11:38:40;101138.69;;;25.15;67.01
21520;BME280;10921;53.614;9.882;2022-08-19T11:41:07;101124.66;;;25.11;66.28
21520;BME280;10921;53.614;9.882;2022-08-19T11:43:34;101144.31;;;25.20;66.87
21520;BME280;10921;53.614;9.882;2022-08-19T11:46:08;101131.50;;;25.20;66.53
21520;BME280;10921;53.614;9.882;2022-08-19T11:48:36;101128.38;;;25.17;65.95
21520;BME280;10921;53.614;9.882;2022-08-19T11:51:11;101114.34;;;25.13;67.22
21520;BME280;10921;53.614;9.882;2022-08-19T11:53:39;101124.72;;;25.23;66.24
21520;BME280;10921;53.614;9.882;2022-08-19T11:56:07;101108.22;;;25.18;65.82
21520;BME280;10921;53.614;9.882;2022-08-19T11:58:34;101121.06;;;25.29;65.39
21520;BME280;10921;53.614;9.882;2022-08-19T12:01:05;101122.63;;;25.37;65.48
21520;BME280;10921;53.614;9.882;2022-08-19T12:03:31;101134.75;;;25.41;65.56
21520;BME280;10921;53.614;9.882;2022-08-19T12:05:58;101124.66;;;25.41;65.10
21520;BME280;10921;53.614;9.882;2022-08-19T12:08:25;101121.00;;;25.47;65.34
21520;BME280;10921;53.614;9.882;2022-08-19T12:10:51;101120.66;;;25.55;64.58
21520;BME280;10921;53.614;9.882;2022-08-19T12:13:17;101117.25;;;25.60;64.87
21520;BME280;10921;53.614;9.882;2022-08-19T12:15:46;101125.97;;;25.69;64.83
21520;BME280;10921;53.614;9.882;2022-08-19T12:18:13;101126.94;;;25.86;64.98
21520;BME280;10921;53.614;9.882;2022-08-19T12:20:41;101122.44;;;26.03;63.90
21520;BME280;10921;53.614;9.882;2022-08-19T12:23:09;101119.47;;;26.16;62.49
21520;BME280;10921;53.614;9.882;2022-08-19T12:25:37;101122.34;;;26.45;63.06
21520;BME280;10921;53.614;9.882;2022-08-19T12:28:03;101121.72;;;26.66;61.72
21520;BME280;10921;53.614;9.882;2022-08-19T12:30:30;101121.59;;;26.84;60.92
21520;BME280;10921;53.614;9.882;2022-08-19T12:32:57;101115.84;;;26.98;60.13
21520;BME280;10921;53.614;9.882;2022-08-19T12:35:23;101115.75;;;27.21;60.35
21520;BME280;10921;53.614;9.882;2022-08-19T12:37:49;101104.50;;;27.34;59.06
21520;BME280;10921;53.614;9.882;2022-08-19T12:40:22;101102.94;;;27.55;58.76
21520;BME280;10921;53.614;9.882;2022-08-19T12:42:51;101111.13;;;27.83;57.83
21520;BME280;10921;53.614;9.882;2022-08-19T12:45:18;101092.53;;;28.02;57.75
21520;BME280;10921;53.614;9.882;2022-08-19T12:47:46;101106.13;;;28.14;56.14
21520;BME280;10921;53.614;9.882;2022-08-19T12:50:14;101097.88;;;28.25;56.49
21520;BME280;10921;53.614;9.882;2022-08-19T12:52:41;101096.94;;;28.20;55.58
21520;BME280;10921;53.614;9.882;2022-08-19T12:55:09;101109.72;;;28.14;56.12
21520;BME280;10921;53.614;9.882;2022-08-19T12:57:37;101101.91;;;28.06;55.60
21520;BME280;10921;53.614;9.882;2022-08-19T13:00:05;101106.50;;;28.00;56.05
21520;BME280;10921;53.614;9.882;2022-08-19T13:02:36;101106.91;;;27.92;56.31
21520;BME280;10921;53.614;9.882;2022-08-19T13:05:06;101113.38;;;27.86;56.53
21520;BME280;10921;53.614;9.882;2022-08-19T13:07:35;101113.47;;;27.75;56.43